sensor_id;sensor_type;location;lat;lon;timestamp;pressure;altitude;pressure_sealevel;temperature;humidity
71306;BME280;59097;46.858;18.632;2023-01-28T00:01:32;100501.25;;;0.54;100.00
71306;BME280;59097;46.858;18.632;2023-01-28T00:04:00;100509.44;;;0.60;100.00
71306;BME280;59097;46.858;18.632;2023-01-28T00:06:42;100492.13;;;0.59;100.00
71306;BME280;59097;46.858;18.632;2023-01-28T00:09:39;100508.81;;;0.68;100.00
71306;BME280;59097;46.858;18.632;2023-01-28T00:12:21;100509.81;;;0.56;100.00
71306;BME280;59097;46.858;18.632;2023-01-28T00:14:47;100512.06;;;0.60;100.00
71306;BME280;59097;46.858;18.632;2023-01-28T00:17:14;100513.84;;;0.49;100.00
71306;BME280;59097;46.858;18.632;2023-01-28T00:19:40;100513.75;;;0.50;100.00
71306;BME280;59097;46.858;18.632;2023-01-28T00:22:06;100514.69;;;0.49;100.00
71306;BME280;59097;46.858;18.632;2023-01-28T00:24:39;100514.50;;;1.25;100.00
71306;BME280;59097;46.858;18.632;2023-01-28T00:27:07;100514.50;;;1.25;100.00
71306;BME280;59097;46.858;18.632;2023-01-28T00:29:36;100502.22;;;0.53;100.00
71306;BME280;59097;46.858;18.632;2023-01-28T00:32:05;100511.22;;;0.60;100.00
71306;BME280;59097;46.858;18.632;2023-01-28T00:34:33;100517.84;;;0.64;100.00
71306;BME280;59097;46.858;18.632;2023-01-28T00:37:03;100518.81;;;0.63;100.00
71306;BME280;59097;46.858;18.632;2023-01-28T00:39:31;100507.75;;;0.28;100.00
71306;BME280;59097;46.858;18.632;2023-01-28T00:42:00;100516.34;;;0.50;100.00
71306;BME280;59097;46.858;18.632;2023-01-28T00:44:43;100520.50;;;0.42;100.00
71306;BME280;59097;46.858;18.632;2023-01-28T00:47:40;100520.97;;;0.58;100.00
71306;BME280;59097;46.858;18.632;2023-01-28T00:50:22;100526.78;;;0.50;100.00
71306;BME280;59097;46.858;18.632;2023-01-28T00:52:48;100528.87;;;0.56;100.00
71306;BME280;59097;46.858;18.632;2023-01-28T00:55:14;100516.72;;;0.46;100.00
71306;BME280;59097;46.858;18.632;2023-01-28T00:57:40;100539.09;;;0.59;100.00
71306;BME280;59097;46.858;18.632;2023-01-28T01:00:07;100531.31;;;0.48;100.00
71306;BME280;59097;46.858;18.632;2023-01-28T01:02:40;100524.56;;;1.09;100.00
71306;BME280;59097;46.858;18.632;2023-01-28T01:05:09;100524.56;;;1.09;100.00
71306;BME280;59097;46.858;18.632;2023-01-28T01:07:37;100529.50;;;0.49;100.00
71306;BME280;59097;46.858;18.632;2023-01-28T01:10:14;100529.03;;;0.44;100.00
71306;BME280;59097;46.858;18.632;2023-01-28T01:12:45;100523.03;;;0.32;100.00
71306;BME280;59097;46.858;18.632;2023-01-28T01:15:14;100528.25;;;0.32;100.00
71306;BME280;59097;46.858;18.632;2023-01-28T01:17:46;100527.63;;;0.40;100.00
71306;BME280;59097;46.858;18.632;2023-01-28T01:20:18;100528.09;;;0.45;100.00
71306;BME280;59097;46.858;18.632;2023-01-28T01:23:01;100523.59;;;0.47;100.00
71306;BME280;59097;46.858;18.632;2023-01-28T01:25:57;100522.59;;;0.59;100.00
71306;BME280;59097;46.858;18.632;2023-01-28T01:28:24;100514.22;;;0.44;100.00
71306;BME280;59097;46.858;18.632;2023-01-28T01:31:06;100521.66;;;0.60;100.00
71306;BME280;59097;46.858;18.632;2023-01-28T01:33:33;100519.66;;;0.41;100.00
71306;BME280;59097;46.858;18.632;2023-01-28T01:36:00;100518.50;;;0.45;100.00
71306;BME280;59097;46.858;18.632;2023-01-28T01:38:32;100516.62;;;1.00;100.00
71306;BME280;59097;46.858;18.632;2023-01-28T01:41:01;100516.62;;;1.00;100.00
71306;BME280;59097;46.858;18.632;2023-01-28T01:44:05;100534.03;;;0.47;100.00
71306;BME280;59097;46.858;18.632;2023-01-28T01:46:37;100535.94;;;0.45;100.00
71306;BME280;59097;46.858;18.632;2023-01-28T01:49:21;100541.38;;;0.53;100.00
71306;BME280;59097;46.858;18.632;2023-01-28T01:51:54;100539.94;;;0.49;100.00
71306;BME280;59097;46.858;18.632;2023-01-28T01:54:41;100536.16;;;0.53;100.00
71306;BME280;59097;46.858;18.632;2023-01-28T01:57:41;100533.78;;;0.50;100.00
71306;BME280;59097;46.858;18.632;2023-01-28T02:00:09;100536.63;;;0.47;100.00
71306;BME280;59097;46.858;18.632;2023-01-28T02:02:39;100538.28;;;0.48;100.00
71306;BME280;59097;46.858;18.632;2023-01-28T02:05:07;100532.25;;;0.47;100.00
71306;BME280;59097;46.858;18.632;2023-01-28T02:07:34;100535.78;;;0.46;100.00
71306;BME280;59097;46.858;18.632;2023-01-28T02:10:08;100548.31;;;1.06;100.00
71306;BME280;59097;46.858;18.632;2023-01-28T02:12:46;100548.31;;;1.06;100.00
71306;BME280;59097;46.858;18.632;2023-01-28T02:15:20;100539.69;;;0.52;100.00
71306;BME280;59097;46.858;18.632;2023-01-28T02:17:50;100510.47;;;0.26;100.00
71306;BME280;59097;46.858;18.632;2023-01-28T02:20:22;100537.09;;;0.52;100.00
71306;BME280;59097;46.858;18.632;2023-01-28T02:23:24;100547.75;;;0.60;100.00
71306;BME280;59097;46.858;18.632;2023-01-28T02:29:26;100537.78;;;0.54;100.00
71306;BME280;59097;46.858;18.632;2023-01-28T02:31:37;100543.97;;;0.53;100.00
71306;BME280;59097;46.858;18.632;2023-01-28T02:34:37;100535.78;;;0.46;100.00
71306;BME280;59097;46.858;18.632;2023-01-28T02:37:16;100532.25;;;0.36;100.00
71306;BME280;59097;46.858;18.632;2023-01-28T02:39:57;100534.38;;;0.53;100.00
71306;BME280;59097;46.858;18.632;2023-01-28T02:42:30;100530.09;;;0.41;100.00
71306;BME280;59097;46.858;18.632;2023-01-28T02:44:57;100518.03;;;0.29;100.00
71306;BME280;59097;46.858;18.632;2023-01-28T02:47:29;100519.97;;;1.02;100.00
71306;BME280;59097;46.858;18.632;2023-01-28T02:50:18;100519.97;;;1.02;100.00
71306;BME280;59097;46.858;18.632;2023-01-28T02:56:06;100523.34;;;0.39;100.00
71306;BME280;59097;46.858;18.632;2023-01-28T02:58:50;100510.59;;;0.25;100.00
71306;BME280;59097;46.858;18.632;2023-01-28T03:01:32;100524.41;;;0.47;100.00
71306;BME280;59097;46.858;18.632;2023-01-28T03:04:08;100525.63;;;0.43;100.00
71306;BME280;59097;46.858;18.632;2023-01-28T03:06:48;100528.56;;;0.39;100.00
71306;BME280;59097;46.858;18.632;2023-01-28T03:09:45;100535.09;;;0.33;100.00
71306;BME280;59097;46.858;18.632;2023-01-28T03:12:30;100528.56;;;0.39;100.00
71306;BME280;59097;46.858;18.632;2023-01-28T03:15:18;100536.75;;;0.34;100.00
71306;BME280;59097;46.858;18.632;2023-01-28T03:21:03;100533.78;;;0.39;100.00
71306;BME280;59097;46.858;18.632;2023-01-28T03:27:09;100526.38;;;0.98;100.00
71306;BME280;59097;46.858;18.632;2023-01-28T03:30:02;100526.38;;;0.98;100.00
71306;BME280;59097;46.858;18.632;2023-01-28T03:32:54;100537.25;;;0.28;100.00
71306;BME280;59097;46.858;18.632;2023-01-28T03:35:43;100533.94;;;0.37;100.00
71306;BME280;59097;46.858;18.632;2023-01-28T03:38:31;100540.59;;;0.30;100.00
71306;BME280;59097;46.858;18.632;2023-01-28T03:41:02;100535.47;;;0.29;100.00
71306;BME280;59097;46.858;18.632;2023-01-28T03:43:30;100546.13;;;0.26;100.00
71306;BME280;59097;46.858;18.632;2023-01-28T03:45:58;100543.06;;;0.21;100.00
71306;BME280;59097;46.858;18.632;2023-01-28T03:48:56;100548.28;;;0.32;100.00
71306;BME280;59097;46.858;18.632;2023-01-28T03:51:23;100542.81;;;0.35;100.00
71306;BME280;59097;46.858;18.632;2023-01-28T03:53:49;100550.19;;;0.30;100.00
71306;BME280;59097;46.858;18.632;2023-01-28T03:56:15;100547.19;;;0.34;100.00
71306;BME280;59097;46.858;18.632;2023-01-28T03:58:43;100550.28;;;0.39;100.00
71306;BME280;59097;46.858;18.632;2023-01-28T04:01:18;100548.97;;;0.34;100.00
71306;BME280;59097;46.858;18.632;2023-01-28T04:03:51;100548.44;;;0.73;100.00
71306;BME280;59097;46.858;18.632;2023-01-28T04:06:22;100548.44;;;0.73;100.00
71306;BME280;59097;46.858;18.632;2023-01-28T04:08:50;100553.72;;;0.29;100.00
71306;BME280;59097;46.858;18.632;2023-01-28T04:11:26;100562.63;;;0.37;100.00
71306;BME280;59097;46.858;18.632;2023-01-28T04:13:54;100563.69;;;0.35;100.00
71306;BME280;59097;46.858;18.632;2023-01-28T04:16:23;100565.47;;;0.34;100.00
71306;BME280;59097;46.858;18.632;2023-01-28T04:18:51;100564.38;;;0.37;100.00
71306;BME280;59097;46.858;18.632;2023-01-28T04:21:19;100562.25;;;0.42;100.00
71306;BME280;59097;46.858;18.632;2023-01-28T04:24:02;100528.28;;;0.10;100.00
71306;BME280;59097;46.858;18.632;2023-01-28T04:26:44;100560.38;;;0.22;100.00
71306;BME280;59097;46.858;18.632;2023-01-28T04:29:25;100567.84;;;0.15;100.00
71306;BME280;59097;46.858;18.632;2023-01-28T04:31:52;100549.94;;;0.11;100.00
71306;BME280;59097;46.858;18.632;2023-01-28T04:34:18;100553.25;;;0.24;100.00
71306;BME280;59097;46.858;18.632;2023-01-28T04:36:45;100576.25;;;0.30;100.00
71306;BME280;59097;46.858;18.632;2023-01-28T04:39:11;100572.81;;;0.29;100.00
71306;BME280;59097;46.858;18.632;2023-01-28T04:41:37;100571.88;;;0.19;100.00
71306;BME280;59097;46.858;18.632;2023-01-28T04:44:10;100574.75;;;0.81;100.00
71306;BME280;59097;46.858;18.632;2023-01-28T04:46:39;100574.75;;;0.81;100.00
71306;BME280;59097;46.858;18.632;2023-01-28T04:49:07;100578.75;;;0.20;100.00
71306;BME280;59097;46.858;18.632;2023-01-28T04:51:38;100561.91;;;0.24;100.00
71306;BME280;59097;46.858;18.632;2023-01-28T04:54:06;100536.44;;;0.06;100.00
71306;BME280;59097;46.858;18.632;2023-01-28T04:56:34;100582.19;;;0.32;100.00
71306;BME280;59097;46.858;18.632;2023-01-28T04:59:03;100581.47;;;0.19;100.00
71306;BME280;59097;46.858;18.632;2023-01-28T05:01:31;100592.84;;;0.29;100.00
71306;BME280;59097;46.858;18.632;2023-01-28T05:04:00;100592.25;;;0.36;100.00
71306;BME280;59097;46.858;18.632;2023-01-28T05:06:45;100593.91;;;0.37;100.00
71306;BME280;59097;46.858;18.632;2023-01-28T05:09:11;100584.06;;;0.19;100.00
71306;BME280;59097;46.858;18.632;2023-01-28T05:11:38;100583.13;;;0.31;100.00
71306;BME280;59097;46.858;18.632;2023-01-28T05:14:04;100592.84;;;0.29;100.00
71306;BME280;59097;46.858;18.632;2023-01-28T05:16:30;100588.59;;;0.28;100.00
71306;BME280;59097;46.858;18.632;2023-01-28T05:19:03;100596.87;;;0.98;100.00
71306;BME280;59097;46.858;18.632;2023-01-28T05:21:32;100596.87;;;0.98;100.00
71306;BME280;59097;46.858;18.632;2023-01-28T05:24:00;100605.66;;;0.32;100.00
71306;BME280;59097;46.858;18.632;2023-01-28T05:26:29;100592.72;;;0.19;100.00
71306;BME280;59097;46.858;18.632;2023-01-28T05:28:57;100592.38;;;0.24;100.00
71306;BME280;59097;46.858;18.632;2023-01-28T05:31:25;100599.72;;;0.30;100.00
71306;BME280;59097;46.858;18.632;2023-01-28T05:33:53;100604.25;;;0.28;100.00
71306;BME280;59097;46.858;18.632;2023-01-28T05:36:36;100606.72;;;0.18;100.00
71306;BME280;59097;46.858;18.632;2023-01-28T05:39:19;100604.72;;;0.22;100.00
71306;BME280;59097;46.858;18.632;2023-01-28T05:42:05;100613.72;;;0.18;100.00
71306;BME280;59097;46.858;18.632;2023-01-28T05:44:31;100606.37;;;0.23;100.00
71306;BME280;59097;46.858;18.632;2023-01-28T05:46:57;100616.06;;;0.21;100.00
71306;BME280;59097;46.858;18.632;2023-01-28T05:49:23;100622.03;;;0.23;100.00
71306;BME280;59097;46.858;18.632;2023-01-28T05:51:51;100616.81;;;0.23;100.00
71306;BME280;59097;46.858;18.632;2023-01-28T05:54:24;100615.53;;;0.93;100.00
71306;BME280;59097;46.858;18.632;2023-01-28T05:56:54;100615.53;;;0.93;100.00
71306;BME280;59097;46.858;18.632;2023-01-28T05:59:22;100616.44;;;0.27;100.00
71306;BME280;59097;46.858;18.632;2023-01-28T06:01:50;100631.72;;;0.21;100.00
71306;BME280;59097;46.858;18.632;2023-01-28T06:04:20;100640.63;;;0.29;100.00
71306;BME280;59097;46.858;18.632;2023-01-28T06:06:48;100626.28;;;0.24;100.00
71306;BME280;59097;46.858;18.632;2023-01-28T06:09:16;100631.00;;;0.19;100.00
71306;BME280;59097;46.858;18.632;2023-01-28T06:11:44;100637.88;;;0.31;100.00
71306;BME280;59097;46.858;18.632;2023-01-28T06:14:13;100640.97;;;0.36;100.00
71306;BME280;59097;46.858;18.632;2023-01-28T06:17:24;100644.06;;;0.30;100.00
71306;BME280;59097;46.858;18.632;2023-01-28T06:20:06;100648.81;;;0.25;100.00
71306;BME280;59097;46.858;18.632;2023-01-28T06:22:33;100651.06;;;0.29;100.00
71306;BME280;59097;46.858;18.632;2023-01-28T06:25:00;100650.34;;;0.27;100.00
71306;BME280;59097;46.858;18.632;2023-01-28T06:27:26;100654.00;;;0.14;100.00
71306;BME280;59097;46.858;18.632;2023-01-28T06:29:52;100660.53;;;0.19;100.00
71306;BME280;59097;46.858;18.632;2023-01-28T06:32:24;100652.25;;;0.25;100.00
71306;BME280;59097;46.858;18.632;2023-01-28T06:34:53;100661.16;;;0.23;100.00
71306;BME280;59097;46.858;18.632;2023-01-28T06:37:21;100663.03;;;0.32;100.00
71306;BME280;59097;46.858;18.632;2023-01-28T06:39:53;100644.19;;;0.17;100.00
71306;BME280;59097;46.858;18.632;2023-01-28T06:42:21;100668.13;;;0.22;100.00
71306;BME280;59097;46.858;18.632;2023-01-28T06:44:49;100655.94;;;0.23;100.00
71306;BME280;59097;46.858;18.632;2023-01-28T06:47:17;100669.78;;;0.34;100.00
71306;BME280;59097;46.858;18.632;2023-01-28T06:49:45;100621.41;;;-0.03;100.00
71306;BME280;59097;46.858;18.632;2023-01-28T06:52:28;100672.06;;;0.28;100.00
71306;BME280;59097;46.858;18.632;2023-01-28T06:55:10;100631.47;;;0.02;100.00
71306;BME280;59097;46.858;18.632;2023-01-28T06:57:51;100681.53;;;0.29;100.00
71306;BME280;59097;46.858;18.632;2023-01-28T07:00:18;100679.84;;;0.17;100.00
71306;BME280;59097;46.858;18.632;2023-01-28T07:02:44;100665.72;;;0.08;100.00
71306;BME280;59097;46.858;18.632;2023-01-28T07:05:10;100683.28;;;0.28;100.00
71306;BME280;59097;46.858;18.632;2023-01-28T07:07:43;100682.34;;;0.85;100.00
71306;BME280;59097;46.858;18.632;2023-01-28T07:10:12;100682.34;;;0.85;100.00
71306;BME280;59097;46.858;18.632;2023-01-28T07:12:41;100668.94;;;0.12;100.00
71306;BME280;59097;46.858;18.632;2023-01-28T07:15:12;100687.44;;;0.20;100.00
71306;BME280;59097;46.858;18.632;2023-01-28T07:17:41;100690.78;;;0.33;100.00
71306;BME280;59097;46.858;18.632;2023-01-28T07:20:12;100695.03;;;0.23;100.00
71306;BME280;59097;46.858;18.632;2023-01-28T07:22:44;100694.34;;;0.32;100.00
71306;BME280;59097;46.858;18.632;2023-01-28T07:25:13;100694.91;;;0.24;100.00
71306;BME280;59097;46.858;18.632;2023-01-28T07:27:50;100697.06;;;0.41;100.00
71306;BME280;59097;46.858;18.632;2023-01-28T07:30:48;100700.63;;;0.40;100.00
71306;BME280;59097;46.858;18.632;2023-01-28T07:33:15;100709.03;;;0.44;100.00
71306;BME280;59097;46.858;18.632;2023-01-28T07:35:42;100703.03;;;0.43;100.00
71306;BME280;59097;46.858;18.632;2023-01-28T07:38:09;100697.53;;;0.46;100.00
71306;BME280;59097;46.858;18.632;2023-01-28T07:40:35;100716.28;;;0.51;100.00
71306;BME280;59097;46.858;18.632;2023-01-28T07:43:08;100710.12;;;0.97;100.00
71306;BME280;59097;46.858;18.632;2023-01-28T07:45:37;100710.12;;;0.97;100.00
71306;BME280;59097;46.858;18.632;2023-01-28T07:48:08;100719.22;;;0.25;100.00
71306;BME280;59097;46.858;18.632;2023-01-28T07:50:37;100721.16;;;0.45;100.00
71306;BME280;59097;46.858;18.632;2023-01-28T07:53:08;100723.53;;;0.48;100.00
71306;BME280;59097;46.858;18.632;2023-01-28T07:55:37;100719.84;;;0.39;100.00
71306;BME280;59097;46.858;18.632;2023-01-28T07:58:07;100723.28;;;0.40;100.00
71306;BME280;59097;46.858;18.632;2023-01-28T08:00:36;100723.78;;;0.56;100.00
71306;BME280;59097;46.858;18.632;2023-01-28T08:03:32;100705.22;;;0.15;100.00
71306;BME280;59097;46.858;18.632;2023-01-28T08:06:30;100726.13;;;0.48;100.00
71306;BME280;59097;46.858;18.632;2023-01-28T08:09:06;100717.72;;;0.55;100.00
71306;BME280;59097;46.858;18.632;2023-01-28T08:11:36;100724.00;;;0.75;100.00
71306;BME280;59097;46.858;18.632;2023-01-28T08:14:02;100724.25;;;0.61;100.00
71306;BME280;59097;46.858;18.632;2023-01-28T08:16:29;100732.31;;;0.80;100.00
71306;BME280;59097;46.858;18.632;2023-01-28T08:19:02;100732.56;;;1.53;100.00
71306;BME280;59097;46.858;18.632;2023-01-28T08:21:31;100732.56;;;1.53;100.00
71306;BME280;59097;46.858;18.632;2023-01-28T08:23:59;100727.44;;;0.98;100.00
71306;BME280;59097;46.858;18.632;2023-01-28T08:26:27;100687.59;;;0.62;100.00
71306;BME280;59097;46.858;18.632;2023-01-28T08:28:55;100726.72;;;1.07;100.00
71306;BME280;59097;46.858;18.632;2023-01-28T08:31:23;100732.75;;;1.18;100.00
71306;BME280;59097;46.858;18.632;2023-01-28T08:33:51;100739.41;;;1.11;100.00
71306;BME280;59097;46.858;18.632;2023-01-28T08:36:20;100741.72;;;1.48;100.00
71306;BME280;59097;46.858;18.632;2023-01-28T08:38:52;100745.03;;;1.50;100.00
71306;BME280;59097;46.858;18.632;2023-01-28T08:41:52;100743.31;;;1.71;100.00
71306;BME280;59097;46.858;18.632;2023-01-28T08:44:18;100742.75;;;1.88;100.00
71306;BME280;59097;46.858;18.632;2023-01-28T08:46:44;100745.50;;;2.07;100.00
71306;BME280;59097;46.858;18.632;2023-01-28T08:49:10;100752.81;;;1.72;100.00
71306;BME280;59097;46.858;18.632;2023-01-28T08:51:37;100745.09;;;1.70;100.00
71306;BME280;59097;46.858;18.632;2023-01-28T08:54:03;100748.78;;;1.68;100.00
71306;BME280;59097;46.858;18.632;2023-01-28T08:56:35;100758.16;;;2.43;97.80
71306;BME280;59097;46.858;18.632;2023-01-28T08:59:06;100758.16;;;2.43;97.80
71306;BME280;59097;46.858;18.632;2023-01-28T09:01:34;100759.97;;;1.59;98.83
71306;BME280;59097;46.858;18.632;2023-01-28T09:04:02;100753.41;;;1.75;100.00
71306;BME280;59097;46.858;18.632;2023-01-28T09:06:31;100749.69;;;1.78;100.00
71306;BME280;59097;46.858;18.632;2023-01-28T09:08:59;100753.72;;;1.82;100.00
71306;BME280;59097;46.858;18.632;2023-01-28T09:11:28;100750.94;;;1.63;99.87
71306;BME280;59097;46.858;18.632;2023-01-28T09:13:57;100760.25;;;1.76;100.00
71306;BME280;59097;46.858;18.632;2023-01-28T09:16:34;100766.00;;;2.02;99.31
71306;BME280;59097;46.858;18.632;2023-01-28T09:19:31;100764.53;;;1.88;98.82
71306;BME280;59097;46.858;18.632;2023-01-28T09:22:13;100763.50;;;2.01;98.18
71306;BME280;59097;46.858;18.632;2023-01-28T09:24:39;100765.91;;;2.24;98.07
71306;BME280;59097;46.858;18.632;2023-01-28T09:27:05;100761.22;;;1.86;99.89
71306;BME280;59097;46.858;18.632;2023-01-28T09:29:35;100775.97;;;2.08;98.74
71306;BME280;59097;46.858;18.632;2023-01-28T09:32:03;100773.09;;;2.11;98.71
71306;BME280;59097;46.858;18.632;2023-01-28T09:34:36;100769.09;;;2.79;95.52
71306;BME280;59097;46.858;18.632;2023-01-28T09:37:05;100769.09;;;2.79;95.52
71306;BME280;59097;46.858;18.632;2023-01-28T09:39:33;100774.78;;;1.80;98.51
71306;BME280;59097;46.858;18.632;2023-01-28T09:45:16;100769.81;;;1.98;98.59
71306;BME280;59097;46.858;18.632;2023-01-28T09:47:51;100767.25;;;1.87;98.47
71306;BME280;59097;46.858;18.632;2023-01-28T09:50:35;100775.19;;;2.17;97.54
71306;BME280;59097;46.858;18.632;2023-01-28T09:56:03;100768.38;;;2.26;96.31
71306;BME280;59097;46.858;18.632;2023-01-28T09:58:30;100761.12;;;2.29;95.81
71306;BME280;59097;46.858;18.632;2023-01-28T10:07:23;100756.47;;;3.24;93.89
71306;BME280;59097;46.858;18.632;2023-01-28T10:12:44;100777.62;;;2.50;95.17
71306;BME280;59097;46.858;18.632;2023-01-28T10:18:11;100771.78;;;2.37;95.80
71306;BME280;59097;46.858;18.632;2023-01-28T10:20:53;100773.47;;;2.48;95.53
71306;BME280;59097;46.858;18.632;2023-01-28T10:23:27;100762.31;;;2.46;95.46
71306;BME280;59097;46.858;18.632;2023-01-28T10:26:24;100773.59;;;2.67;95.64
71306;BME280;59097;46.858;18.632;2023-01-28T10:28:55;100768.81;;;2.51;94.14
71306;BME280;59097;46.858;18.632;2023-01-28T10:31:23;100775.72;;;2.52;95.53
71306;BME280;59097;46.858;18.632;2023-01-28T10:33:53;100768.16;;;2.59;95.11
71306;BME280;59097;46.858;18.632;2023-01-28T10:36:19;100768.06;;;2.61;93.78
71306;BME280;59097;46.858;18.632;2023-01-28T10:38:47;100767.16;;;2.50;94.39
71306;BME280;59097;46.858;18.632;2023-01-28T10:41:20;100763.72;;;2.50;95.23
71306;BME280;59097;46.858;18.632;2023-01-28T10:43:53;100759.34;;;3.21;92.67
71306;BME280;59097;46.858;18.632;2023-01-28T10:46:27;100759.34;;;3.21;92.67
71306;BME280;59097;46.858;18.632;2023-01-28T10:49:15;100771.00;;;2.46;94.21
71306;BME280;59097;46.858;18.632;2023-01-28T10:51:45;100775.78;;;2.41;94.45
71306;BME280;59097;46.858;18.632;2023-01-28T10:54:29;100756.75;;;2.19;95.98
71306;BME280;59097;46.858;18.632;2023-01-28T10:57:00;100772.56;;;2.38;94.33
71306;BME280;59097;46.858;18.632;2023-01-28T10:59:30;100721.66;;;2.21;95.33
71306;BME280;59097;46.858;18.632;2023-01-28T11:02:30;100778.91;;;2.35;96.21
71306;BME280;59097;46.858;18.632;2023-01-28T11:05:15;100775.72;;;2.32;97.87
71306;BME280;59097;46.858;18.632;2023-01-28T11:08:12;100770.28;;;2.65;95.92
71306;BME280;59097;46.858;18.632;2023-01-28T11:10:41;100771.19;;;2.54;94.66
71306;BME280;59097;46.858;18.632;2023-01-28T11:13:24;100769.00;;;2.60;94.52
71306;BME280;59097;46.858;18.632;2023-01-28T11:16:00;100766.44;;;2.69;93.88
71306;BME280;59097;46.858;18.632;2023-01-28T11:18:30;100767.72;;;2.75;93.56
71306;BME280;59097;46.858;18.632;2023-01-28T11:20:59;100767.00;;;2.73;92.90
71306;BME280;59097;46.858;18.632;2023-01-28T11:23:36;100764.53;;;3.60;91.86
71306;BME280;59097;46.858;18.632;2023-01-28T11:26:14;100764.53;;;3.60;91.86
71306;BME280;59097;46.858;18.632;2023-01-28T11:28:44;100761.53;;;2.76;93.97
71306;BME280;59097;46.858;18.632;2023-01-28T11:31:15;100762.19;;;2.98;94.08
71306;BME280;59097;46.858;18.632;2023-01-28T11:33:54;100770.28;;;2.95;92.09
71306;BME280;59097;46.858;18.632;2023-01-28T11:36:31;100766.78;;;2.85;92.74
71306;BME280;59097;46.858;18.632;2023-01-28T11:39:02;100762.00;;;2.90;93.48
71306;BME280;59097;46.858;18.632;2023-01-28T11:41:35;100758.25;;;2.83;93.04
71306;BME280;59097;46.858;18.632;2023-01-28T11:44:16;100757.44;;;2.92;92.25
71306;BME280;59097;46.858;18.632;2023-01-28T12:01:09;100744.41;;;3.90;89.54
71306;BME280;59097;46.858;18.632;2023-01-28T12:18:26;100753.62;;;3.55;90.49
71306;BME280;59097;46.858;18.632;2023-01-28T12:29:46;100759.44;;;3.09;93.67
71306;BME280;59097;46.858;18.632;2023-01-28T12:43:02;100754.56;;;2.95;93.14
71306;BME280;59097;46.858;18.632;2023-01-28T12:45:33;100748.25;;;3.07;94.07
71306;BME280;59097;46.858;18.632;2023-01-28T12:48:15;100748.63;;;3.33;93.21
71306;BME280;59097;46.858;18.632;2023-01-28T12:50:52;100729.66;;;3.10;92.60
71306;BME280;59097;46.858;18.632;2023-01-28T13:01:27;100742.91;;;3.09;93.33
71306;BME280;59097;46.858;18.632;2023-01-28T13:04:08;100761.03;;;3.31;92.21
71306;BME280;59097;46.858;18.632;2023-01-28T13:06:50;100737.31;;;2.93;93.47
71306;BME280;59097;46.858;18.632;2023-01-28T13:09:20;100761.19;;;2.99;93.88
71306;BME280;59097;46.858;18.632;2023-01-28T13:11:50;100757.88;;;2.97;93.86
71306;BME280;59097;46.858;18.632;2023-01-28T13:14:30;100770.59;;;3.61;91.81
71306;BME280;59097;46.858;18.632;2023-01-28T13:17:23;100770.59;;;3.61;91.81
71306;BME280;59097;46.858;18.632;2023-01-28T13:19:52;100779.81;;;2.96;94.53
71306;BME280;59097;46.858;18.632;2023-01-28T13:22:28;100775.06;;;2.81;93.33
71306;BME280;59097;46.858;18.632;2023-01-28T13:25:10;100776.41;;;3.05;92.85
71306;BME280;59097;46.858;18.632;2023-01-28T13:27:40;100774.03;;;3.02;93.70
71306;BME280;59097;46.858;18.632;2023-01-28T13:30:22;100776.09;;;2.99;95.42
71306;BME280;59097;46.858;18.632;2023-01-28T13:33:24;100770.91;;;3.08;93.27
71306;BME280;59097;46.858;18.632;2023-01-28T13:36:27;100780.72;;;3.16;94.24
71306;BME280;59097;46.858;18.632;2023-01-28T13:39:17;100777.81;;;2.89;94.25
71306;BME280;59097;46.858;18.632;2023-01-28T13:41:52;100776.47;;;2.94;95.87
71306;BME280;59097;46.858;18.632;2023-01-28T13:44:33;100774.91;;;2.82;93.98
71306;BME280;59097;46.858;18.632;2023-01-28T13:54:58;100794.09;;;2.83;94.91
71306;BME280;59097;46.858;18.632;2023-01-28T14:19:32;100808.38;;;2.79;94.45
71306;BME280;59097;46.858;18.632;2023-01-28T14:22:06;100826.59;;;2.80;94.11
71306;BME280;59097;46.858;18.632;2023-01-28T14:24:38;100820.09;;;3.05;93.06
71306;BME280;59097;46.858;18.632;2023-01-28T14:27:19;100820.09;;;3.05;93.06
71306;BME280;59097;46.858;18.632;2023-01-28T14:30:19;100833.63;;;2.59;95.84
71306;BME280;59097;46.858;18.632;2023-01-28T14:32:51;100827.94;;;2.33;96.04
71306;BME280;59097;46.858;18.632;2023-01-28T14:35:31;100825.94;;;2.26;95.71
71306;BME280;59097;46.858;18.632;2023-01-28T14:38:07;100818.41;;;2.12;96.65
71306;BME280;59097;46.858;18.632;2023-01-28T14:40:37;100826.91;;;2.25;97.71
71306;BME280;59097;46.858;18.632;2023-01-28T14:43:12;100828.81;;;2.43;96.17
71306;BME280;59097;46.858;18.632;2023-01-28T14:46:11;100836.25;;;2.07;97.79
71306;BME280;59097;46.858;18.632;2023-01-28T14:48:45;100837.44;;;2.34;96.90
71306;BME280;59097;46.858;18.632;2023-01-28T14:59:45;100848.38;;;2.60;95.96
71306;BME280;59097;46.858;18.632;2023-01-28T15:02:21;100848.38;;;2.60;95.96
71306;BME280;59097;46.858;18.632;2023-01-28T15:04:51;100862.47;;;1.84;98.75
71306;BME280;59097;46.858;18.632;2023-01-28T15:07:23;100856.03;;;1.88;98.96
71306;BME280;59097;46.858;18.632;2023-01-28T15:10:06;100858.53;;;1.79;98.83
71306;BME280;59097;46.858;18.632;2023-01-28T15:12:37;100842.62;;;1.82;97.80
71306;BME280;59097;46.858;18.632;2023-01-28T15:15:09;100864.50;;;1.81;98.33
71306;BME280;59097;46.858;18.632;2023-01-28T15:17:39;100845.88;;;1.63;99.11
71306;BME280;59097;46.858;18.632;2023-01-28T15:20:23;100867.13;;;1.81;99.00
71306;BME280;59097;46.858;18.632;2023-01-28T15:23:28;100871.75;;;1.88;97.89
71306;BME280;59097;46.858;18.632;2023-01-28T15:25:57;100869.75;;;1.70;99.46